バミューダ の空港の天気 - METARとTAF

バミューダ国際空港 ( TXKF / BDA ) - バミューダ諸島 Ferry Reach
飛行場実況気象(Metar)
観測時間08/05 03:55 ADT (08/05 06:55 UTC)
風向・風速東 5m/s
視程10km以上
天気現象
少しの雲 雲底高度 910m
気温26℃
湿度70%
気圧1020hPa
METARTXKF 050655Z 10009KT 9999 FEW030 26/20 Q1020
過去の天気等 Google飛行場航空写真 Wunderground天気予報

過去48時間のMETAR

飛行場予報(TAF)
発表時間: 8/05 02:31 ADT (8/05 05:31 UTC)
予報対象時間: 5日3時 ADT ~ 6日3時 ADT
風向・風速東 6m/s
視程10km以上
少しの雲 雲底高度 910m
TAF TXKF 050531Z 0506/0606 10012KT 9999 FEW030